sensor_id;sensor_type;location;lat;lon;timestamp;pressure;altitude;pressure_sealevel;temperature;humidity
42297;BME280;72430;47.456;19.016;2024-01-25T00:00:58;100639.19;;;8.18;63.67
42297;BME280;72430;47.456;19.016;2024-01-25T00:04:00;100628.13;;;8.23;64.15
42297;BME280;72430;47.456;19.016;2024-01-25T00:07:03;100632.66;;;8.33;63.79
42297;BME280;72430;47.456;19.016;2024-01-25T00:10:05;100621.25;;;8.43;62.84
42297;BME280;72430;47.456;19.016;2024-01-25T00:13:09;100617.69;;;8.42;62.81
42297;BME280;72430;47.456;19.016;2024-01-25T00:16:10;100630.25;;;8.42;62.43
42297;BME280;72430;47.456;19.016;2024-01-25T00:19:12;100631.91;;;8.56;62.18
42297;BME280;72430;47.456;19.016;2024-01-25T00:22:14;100635.97;;;8.37;61.62
42297;BME280;72430;47.456;19.016;2024-01-25T00:25:17;100626.94;;;8.38;61.75
42297;BME280;72430;47.456;19.016;2024-01-25T00:28:19;100636.25;;;8.45;60.87
42297;BME280;72430;47.456;19.016;2024-01-25T00:31:21;100647.00;;;8.45;60.50
42297;BME280;72430;47.456;19.016;2024-01-25T00:34:23;100628.75;;;8.62;60.33
42297;BME280;72430;47.456;19.016;2024-01-25T00:37:26;100633.56;;;8.45;61.01
42297;BME280;72430;47.456;19.016;2024-01-25T00:40:29;100643.19;;;8.37;61.26
42297;BME280;72430;47.456;19.016;2024-01-25T00:43:31;100630.50;;;8.39;61.18
42297;BME280;72430;47.456;19.016;2024-01-25T00:46:33;100632.47;;;8.48;60.31
42297;BME280;72430;47.456;19.016;2024-01-25T00:49:35;100630.50;;;8.39;60.70
42297;BME280;72430;47.456;19.016;2024-01-25T00:52:38;100618.28;;;8.35;60.61
42297;BME280;72430;47.456;19.016;2024-01-25T00:55:40;100622.59;;;8.49;59.98
42297;BME280;72430;47.456;19.016;2024-01-25T00:58:44;100638.28;;;8.42;59.23
42297;BME280;72430;47.456;19.016;2024-01-25T01:01:47;100644.91;;;8.49;58.44
42297;BME280;72430;47.456;19.016;2024-01-25T01:04:52;100647.72;;;8.48;58.95
42297;BME280;72430;47.456;19.016;2024-01-25T01:07:54;100625.53;;;8.45;59.01
42297;BME280;72430;47.456;19.016;2024-01-25T01:10:56;100637.41;;;8.54;58.21
42297;BME280;72430;47.456;19.016;2024-01-25T01:13:58;100629.97;;;8.58;58.14
42297;BME280;72430;47.456;19.016;2024-01-25T01:17:00;100633.84;;;8.54;58.77
42297;BME280;72430;47.456;19.016;2024-01-25T01:20:02;100625.09;;;8.63;57.17
42297;BME280;72430;47.456;19.016;2024-01-25T01:23:04;100631.09;;;8.67;56.98
42297;BME280;72430;47.456;19.016;2024-01-25T01:26:07;100644.38;;;8.68;57.33
42297;BME280;72430;47.456;19.016;2024-01-25T01:29:09;100620.22;;;8.57;57.62
42297;BME280;72430;47.456;19.016;2024-01-25T01:32:11;100631.31;;;8.64;57.32
42297;BME280;72430;47.456;19.016;2024-01-25T01:35:13;100629.00;;;8.59;57.21
42297;BME280;72430;47.456;19.016;2024-01-25T01:38:15;100619.25;;;8.69;57.40
42297;BME280;72430;47.456;19.016;2024-01-25T01:41:17;100614.63;;;8.71;57.03
42297;BME280;72430;47.456;19.016;2024-01-25T01:44:18;100609.00;;;8.63;56.35
42297;BME280;72430;47.456;19.016;2024-01-25T01:47:20;100603.28;;;8.68;56.81
42297;BME280;72430;47.456;19.016;2024-01-25T01:50:22;100640.81;;;8.56;57.11
42297;BME280;72430;47.456;19.016;2024-01-25T01:53:25;100596.78;;;8.59;56.74
42297;BME280;72430;47.456;19.016;2024-01-25T01:56:28;100593.53;;;8.67;56.43
42297;BME280;72430;47.456;19.016;2024-01-25T01:59:32;100591.78;;;8.54;56.87
42297;BME280;72430;47.456;19.016;2024-01-25T02:02:35;100594.00;;;8.61;55.17
42297;BME280;72430;47.456;19.016;2024-01-25T02:05:37;100595.84;;;8.71;55.78
42297;BME280;72430;47.456;19.016;2024-01-25T02:08:39;100594.50;;;8.66;55.74
42297;BME280;72430;47.456;19.016;2024-01-25T02:11:40;100568.50;;;8.66;56.85
42297;BME280;72430;47.456;19.016;2024-01-25T02:14:42;100574.75;;;8.78;56.46
42297;BME280;72430;47.456;19.016;2024-01-25T02:17:44;100568.13;;;8.71;56.49
42297;BME280;72430;47.456;19.016;2024-01-25T02:20:46;100565.72;;;8.79;54.79
42297;BME280;72430;47.456;19.016;2024-01-25T02:23:50;100554.72;;;8.82;55.68
42297;BME280;72430;47.456;19.016;2024-01-25T02:26:52;100552.78;;;8.73;55.77
42297;BME280;72430;47.456;19.016;2024-01-25T02:29:55;100548.13;;;8.75;55.77
42297;BME280;72430;47.456;19.016;2024-01-25T02:32:57;100551.53;;;8.89;55.54
42297;BME280;72430;47.456;19.016;2024-01-25T02:35:59;100548.50;;;8.70;55.23
42297;BME280;72430;47.456;19.016;2024-01-25T02:39:01;100560.47;;;8.78;55.19
42297;BME280;72430;47.456;19.016;2024-01-25T02:42:03;100553.63;;;8.85;55.99
42297;BME280;72430;47.456;19.016;2024-01-25T02:45:05;100557.06;;;8.76;55.87
42297;BME280;72430;47.456;19.016;2024-01-25T02:48:07;100555.19;;;8.65;56.64
42297;BME280;72430;47.456;19.016;2024-01-25T02:51:09;100556.69;;;8.80;56.08
42297;BME280;72430;47.456;19.016;2024-01-25T02:54:11;100559.13;;;8.72;56.13
42297;BME280;72430;47.456;19.016;2024-01-25T02:57:13;100574.00;;;8.76;56.49
42297;BME280;72430;47.456;19.016;2024-01-25T03:00:15;100575.34;;;8.82;56.40
42297;BME280;72430;47.456;19.016;2024-01-25T03:03:16;100562.66;;;8.84;56.56
42297;BME280;72430;47.456;19.016;2024-01-25T03:06:19;100553.28;;;8.90;56.52
42297;BME280;72430;47.456;19.016;2024-01-25T03:09:21;100566.06;;;8.86;57.00
42297;BME280;72430;47.456;19.016;2024-01-25T03:12:25;100567.53;;;8.79;56.43
42297;BME280;72430;47.456;19.016;2024-01-25T03:15:27;100579.63;;;8.84;56.79
42297;BME280;72430;47.456;19.016;2024-01-25T03:18:29;100569.13;;;8.81;56.90
42297;BME280;72430;47.456;19.016;2024-01-25T03:21:31;100570.34;;;8.89;57.28
42297;BME280;72430;47.456;19.016;2024-01-25T03:24:33;100564.97;;;8.77;56.77
42297;BME280;72430;47.456;19.016;2024-01-25T03:27:34;100559.97;;;8.84;57.44
42297;BME280;72430;47.456;19.016;2024-01-25T03:30:36;100563.50;;;8.73;57.95
42297;BME280;72430;47.456;19.016;2024-01-25T03:33:38;100576.34;;;8.81;57.06
42297;BME280;72430;47.456;19.016;2024-01-25T03:36:40;100570.81;;;8.82;58.09
42297;BME280;72430;47.456;19.016;2024-01-25T03:39:42;100582.53;;;8.81;58.02
42297;BME280;72430;47.456;19.016;2024-01-25T03:42:44;100581.09;;;8.66;58.65
42297;BME280;72430;47.456;19.016;2024-01-25T03:46:06;100573.88;;;8.78;58.63
42297;BME280;72430;47.456;19.016;2024-01-25T03:49:08;100570.94;;;8.92;58.05
42297;BME280;72430;47.456;19.016;2024-01-25T03:52:10;100585.97;;;8.72;58.13
42297;BME280;72430;47.456;19.016;2024-01-25T03:55:12;100582.06;;;8.88;57.58
42297;BME280;72430;47.456;19.016;2024-01-25T03:58:16;100578.66;;;8.97;57.62
42297;BME280;72430;47.456;19.016;2024-01-25T04:01:19;100583.41;;;8.93;57.67
42297;BME280;72430;47.456;19.016;2024-01-25T04:04:21;100574.72;;;9.01;56.76
42297;BME280;72430;47.456;19.016;2024-01-25T04:07:23;100570.09;;;9.03;56.70
42297;BME280;72430;47.456;19.016;2024-01-25T04:10:25;100582.81;;;8.90;57.43
42297;BME280;72430;47.456;19.016;2024-01-25T04:13:27;100559.00;;;8.96;56.89
42297;BME280;72430;47.456;19.016;2024-01-25T04:16:29;100558.97;;;9.08;56.10
42297;BME280;72430;47.456;19.016;2024-01-25T04:19:32;100550.22;;;9.06;56.50
42297;BME280;72430;47.456;19.016;2024-01-25T04:22:35;100538.59;;;9.05;55.72
42297;BME280;72430;47.456;19.016;2024-01-25T04:25:37;100538.88;;;8.91;56.81
42297;BME280;72430;47.456;19.016;2024-01-25T04:28:39;100542.03;;;9.07;56.23
42297;BME280;72430;47.456;19.016;2024-01-25T04:31:45;100545.44;;;9.09;55.92
42297;BME280;72430;47.456;19.016;2024-01-25T04:34:47;100560.69;;;9.09;56.65
42297;BME280;72430;47.456;19.016;2024-01-25T04:37:49;100573.41;;;9.07;56.34
42297;BME280;72430;47.456;19.016;2024-01-25T04:40:51;100575.47;;;9.03;56.69
42297;BME280;72430;47.456;19.016;2024-01-25T04:43:53;100576.19;;;9.17;56.20
42297;BME280;72430;47.456;19.016;2024-01-25T04:46:55;100585.59;;;8.99;56.39
42297;BME280;72430;47.456;19.016;2024-01-25T04:49:58;100594.28;;;8.92;56.88
42297;BME280;72430;47.456;19.016;2024-01-25T04:53:02;100587.31;;;9.00;56.94
42297;BME280;72430;47.456;19.016;2024-01-25T04:56:04;100596.94;;;8.80;57.26
42297;BME280;72430;47.456;19.016;2024-01-25T04:59:06;100589.28;;;8.87;57.30
42297;BME280;72430;47.456;19.016;2024-01-25T05:02:07;100601.09;;;8.84;57.42
42297;BME280;72430;47.456;19.016;2024-01-25T05:05:09;100593.16;;;8.94;56.52
42297;BME280;72430;47.456;19.016;2024-01-25T05:08:12;100581.06;;;9.00;57.25
42297;BME280;72430;47.456;19.016;2024-01-25T05:11:14;100578.28;;;8.90;57.09
42297;BME280;72430;47.456;19.016;2024-01-25T05:14:15;100573.50;;;8.94;56.76
42297;BME280;72430;47.456;19.016;2024-01-25T05:17:18;100564.13;;;8.99;57.08
42297;BME280;72430;47.456;19.016;2024-01-25T05:20:20;100587.81;;;8.94;56.22
42297;BME280;72430;47.456;19.016;2024-01-25T05:23:22;100565.22;;;8.85;56.38
42297;BME280;72430;47.456;19.016;2024-01-25T05:26:24;100584.63;;;8.89;57.02
42297;BME280;72430;47.456;19.016;2024-01-25T05:29:26;100579.84;;;8.93;56.20
42297;BME280;72430;47.456;19.016;2024-01-25T05:32:28;100585.22;;;8.93;57.08
42297;BME280;72430;47.456;19.016;2024-01-25T05:35:30;100596.09;;;8.91;57.00
42297;BME280;72430;47.456;19.016;2024-01-25T05:38:32;100577.28;;;8.91;56.43
42297;BME280;72430;47.456;19.016;2024-01-25T05:41:34;100587.19;;;8.91;57.00
42297;BME280;72430;47.456;19.016;2024-01-25T05:44:35;100589.38;;;8.85;57.45
42297;BME280;72430;47.456;19.016;2024-01-25T05:47:37;100603.41;;;8.78;58.00
42297;BME280;72430;47.456;19.016;2024-01-25T05:50:39;100602.19;;;8.82;57.85
42297;BME280;72430;47.456;19.016;2024-01-25T05:53:41;100599.75;;;8.90;57.55
42297;BME280;72430;47.456;19.016;2024-01-25T05:56:43;100601.72;;;8.88;57.14
42297;BME280;72430;47.456;19.016;2024-01-25T05:59:45;100597.06;;;8.79;58.08
42297;BME280;72430;47.456;19.016;2024-01-25T06:02:46;100599.84;;;8.77;57.64
42297;BME280;72430;47.456;19.016;2024-01-25T06:05:48;100610.97;;;8.72;58.39
42297;BME280;72430;47.456;19.016;2024-01-25T06:08:50;100600.00;;;8.76;58.34
42297;BME280;72430;47.456;19.016;2024-01-25T06:12:07;100580.31;;;8.64;58.77
42297;BME280;72430;47.456;19.016;2024-01-25T06:15:09;100588.25;;;8.65;58.45
42297;BME280;72430;47.456;19.016;2024-01-25T06:18:11;100591.31;;;8.61;58.58
42297;BME280;72430;47.456;19.016;2024-01-25T06:21:13;100594.50;;;8.66;58.96
42297;BME280;72430;47.456;19.016;2024-01-25T06:24:15;100586.91;;;8.59;59.27
42297;BME280;72430;47.456;19.016;2024-01-25T06:27:17;100589.94;;;8.55;58.80
42297;BME280;72430;47.456;19.016;2024-01-25T06:30:19;100597.94;;;8.43;59.61
42297;BME280;72430;47.456;19.016;2024-01-25T06:33:21;100582.28;;;8.62;58.75
42297;BME280;72430;47.456;19.016;2024-01-25T06:36:23;100591.16;;;8.62;58.94
42297;BME280;72430;47.456;19.016;2024-01-25T06:39:25;100588.97;;;8.56;59.37
42297;BME280;72430;47.456;19.016;2024-01-25T06:42:27;100594.84;;;8.72;59.13
42297;BME280;72430;47.456;19.016;2024-01-25T06:45:29;100586.44;;;8.66;58.44
42297;BME280;72430;47.456;19.016;2024-01-25T06:48:31;100584.13;;;8.72;58.60
42297;BME280;72430;47.456;19.016;2024-01-25T06:51:33;100610.00;;;8.85;58.16
42297;BME280;72430;47.456;19.016;2024-01-25T06:54:35;100617.94;;;8.86;58.05
42297;BME280;72430;47.456;19.016;2024-01-25T06:57:38;100635.75;;;8.99;57.11
42297;BME280;72430;47.456;19.016;2024-01-25T07:00:40;100638.31;;;8.89;57.11
42297;BME280;72430;47.456;19.016;2024-01-25T07:03:44;100646.13;;;8.92;56.55
42297;BME280;72430;47.456;19.016;2024-01-25T07:06:49;100646.28;;;9.02;56.24
42297;BME280;72430;47.456;19.016;2024-01-25T07:09:52;100625.91;;;9.11;55.74
42297;BME280;72430;47.456;19.016;2024-01-25T07:12:54;100628.69;;;9.21;55.75
42297;BME280;72430;47.456;19.016;2024-01-25T07:15:56;100606.50;;;9.07;56.08
42297;BME280;72430;47.456;19.016;2024-01-25T07:18:58;100582.94;;;9.11;55.70
42297;BME280;72430;47.456;19.016;2024-01-25T07:22:00;100579.38;;;9.22;55.28
42297;BME280;72430;47.456;19.016;2024-01-25T07:25:02;100594.38;;;9.13;55.40
42297;BME280;72430;47.456;19.016;2024-01-25T07:28:04;100573.13;;;9.21;54.64
42297;BME280;72430;47.456;19.016;2024-01-25T07:31:06;100563.03;;;9.13;54.97
42297;BME280;72430;47.456;19.016;2024-01-25T07:34:09;100569.72;;;9.19;54.87
42297;BME280;72430;47.456;19.016;2024-01-25T07:37:12;100570.44;;;9.21;54.33
42297;BME280;72430;47.456;19.016;2024-01-25T07:40:14;100578.38;;;9.11;54.45
42297;BME280;72430;47.456;19.016;2024-01-25T07:43:16;100578.38;;;9.34;54.21
42297;BME280;72430;47.456;19.016;2024-01-25T07:46:18;100591.06;;;9.44;54.58
42297;BME280;72430;47.456;19.016;2024-01-25T07:49:20;100608.50;;;9.49;53.80
42297;BME280;72430;47.456;19.016;2024-01-25T07:52:22;100629.50;;;9.56;53.47
42297;BME280;72430;47.456;19.016;2024-01-25T07:55:28;100607.78;;;9.59;53.96
42297;BME280;72430;47.456;19.016;2024-01-25T07:58:31;100638.53;;;9.66;51.36
42297;BME280;72430;47.456;19.016;2024-01-25T08:01:33;100630.19;;;9.80;51.74
42297;BME280;72430;47.456;19.016;2024-01-25T08:04:35;100639.44;;;9.99;51.44
42297;BME280;72430;47.456;19.016;2024-01-25T08:07:39;100635.59;;;10.13;49.28
42297;BME280;72430;47.456;19.016;2024-01-25T08:10:41;100650.72;;;10.26;48.87
42297;BME280;72430;47.456;19.016;2024-01-25T08:13:42;100640.16;;;10.34;48.95
42297;BME280;72430;47.456;19.016;2024-01-25T08:16:44;100675.22;;;10.11;48.57
42297;BME280;72430;47.456;19.016;2024-01-25T08:19:46;100672.44;;;10.45;48.19
42297;BME280;72430;47.456;19.016;2024-01-25T08:22:51;100657.41;;;10.64;48.29
42297;BME280;72430;47.456;19.016;2024-01-25T08:25:53;100641.97;;;10.66;48.56
42297;BME280;72430;47.456;19.016;2024-01-25T08:28:55;100635.84;;;10.85;49.29
42297;BME280;72430;47.456;19.016;2024-01-25T08:31:57;100647.41;;;11.28;48.61
42297;BME280;72430;47.456;19.016;2024-01-25T08:34:59;100643.94;;;11.48;47.08
42297;BME280;72430;47.456;19.016;2024-01-25T08:38:01;100638.16;;;11.62;47.74
42297;BME280;72430;47.456;19.016;2024-01-25T08:41:04;100642.63;;;12.03;46.99
42297;BME280;72430;47.456;19.016;2024-01-25T08:44:06;100645.78;;;12.08;46.44
42297;BME280;72430;47.456;19.016;2024-01-25T08:47:08;100643.81;;;12.30;45.53
42297;BME280;72430;47.456;19.016;2024-01-25T08:50:11;100634.84;;;12.49;45.48
42297;BME280;72430;47.456;19.016;2024-01-25T08:53:13;100612.28;;;12.98;46.46
42297;BME280;72430;47.456;19.016;2024-01-25T08:56:16;100649.59;;;13.60;44.77
42297;BME280;72430;47.456;19.016;2024-01-25T08:59:18;100652.78;;;13.74;44.18
42297;BME280;72430;47.456;19.016;2024-01-25T09:02:20;100641.31;;;13.90;43.88
42297;BME280;72430;47.456;19.016;2024-01-25T09:05:28;100647.00;;;14.59;43.41
42297;BME280;72430;47.456;19.016;2024-01-25T09:08:31;100650.41;;;14.80;40.94
42297;BME280;72430;47.456;19.016;2024-01-25T09:11:33;100669.22;;;15.08;39.45
42297;BME280;72430;47.456;19.016;2024-01-25T09:14:35;100665.34;;;15.45;40.40
42297;BME280;72430;47.456;19.016;2024-01-25T09:17:38;100676.44;;;15.25;40.92
42297;BME280;72430;47.456;19.016;2024-01-25T09:20:40;100685.59;;;15.59;38.48
42297;BME280;72430;47.456;19.016;2024-01-25T09:23:42;100698.63;;;15.90;39.50
42297;BME280;72430;47.456;19.016;2024-01-25T09:26:44;100701.13;;;15.83;38.47
42297;BME280;72430;47.456;19.016;2024-01-25T09:29:46;100688.34;;;16.10;37.67
42297;BME280;72430;47.456;19.016;2024-01-25T09:32:48;100698.78;;;16.73;36.61
42297;BME280;72430;47.456;19.016;2024-01-25T09:35:50;100697.56;;;17.01;37.42
42297;BME280;72430;47.456;19.016;2024-01-25T09:38:53;100721.19;;;16.84;36.17
42297;BME280;72430;47.456;19.016;2024-01-25T09:41:55;100704.72;;;16.52;37.12
42297;BME280;72430;47.456;19.016;2024-01-25T09:44:57;100715.09;;;17.15;34.70
42297;BME280;72430;47.456;19.016;2024-01-25T09:47:59;100705.22;;;18.10;34.68
42297;BME280;72430;47.456;19.016;2024-01-25T09:51:03;100717.38;;;17.43;34.90
42297;BME280;72430;47.456;19.016;2024-01-25T09:54:05;100699.44;;;18.99;34.92
42297;BME280;72430;47.456;19.016;2024-01-25T09:57:16;100730.78;;;18.01;32.04
42297;BME280;72430;47.456;19.016;2024-01-25T10:00:21;100709.53;;;18.28;32.86
42297;BME280;72430;47.456;19.016;2024-01-25T10:03:23;100719.94;;;19.18;31.36
42297;BME280;72430;47.456;19.016;2024-01-25T10:06:26;100733.47;;;19.26;33.30
42297;BME280;72430;47.456;19.016;2024-01-25T10:09:28;100707.78;;;20.18;32.16
42297;BME280;72430;47.456;19.016;2024-01-25T10:12:30;100707.31;;;20.51;31.17
42297;BME280;72430;47.456;19.016;2024-01-25T10:15:33;100722.34;;;20.62;29.71
42297;BME280;72430;47.456;19.016;2024-01-25T10:18:35;100703.66;;;20.44;31.85
42297;BME280;72430;47.456;19.016;2024-01-25T10:21:40;100707.75;;;20.98;29.30
42297;BME280;72430;47.456;19.016;2024-01-25T10:24:43;100702.31;;;21.05;29.68
42297;BME280;72430;47.456;19.016;2024-01-25T10:27:46;100688.91;;;21.88;28.62
42297;BME280;72430;47.456;19.016;2024-01-25T10:30:50;100683.75;;;22.26;27.90
42297;BME280;72430;47.456;19.016;2024-01-25T10:33:53;100691.81;;;21.44;27.12
42297;BME280;72430;47.456;19.016;2024-01-25T10:36:55;100698.59;;;21.48;28.46
42297;BME280;72430;47.456;19.016;2024-01-25T10:39:59;100687.50;;;21.63;27.87
42297;BME280;72430;47.456;19.016;2024-01-25T10:43:01;100673.69;;;20.57;28.07
42297;BME280;72430;47.456;19.016;2024-01-25T10:46:04;100687.44;;;20.20;28.69
42297;BME280;72430;47.456;19.016;2024-01-25T10:49:07;100694.00;;;20.70;28.84
42297;BME280;72430;47.456;19.016;2024-01-25T10:52:10;100700.13;;;20.93;29.20
42297;BME280;72430;47.456;19.016;2024-01-25T10:55:14;100689.84;;;21.66;27.34
42297;BME280;72430;47.456;19.016;2024-01-25T10:58:18;100683.34;;;21.03;27.27
42297;BME280;72430;47.456;19.016;2024-01-25T11:01:20;100662.63;;;21.16;28.39
42297;BME280;72430;47.456;19.016;2024-01-25T11:04:23;100700.03;;;21.44;27.28
42297;BME280;72430;47.456;19.016;2024-01-25T11:07:25;100673.13;;;21.19;27.53
42297;BME280;72430;47.456;19.016;2024-01-25T11:10:27;100684.41;;;21.73;27.37
42297;BME280;72430;47.456;19.016;2024-01-25T11:13:31;100691.41;;;21.82;27.67
42297;BME280;72430;47.456;19.016;2024-01-25T11:16:35;100674.94;;;22.99;26.07
42297;BME280;72430;47.456;19.016;2024-01-25T11:19:38;100660.84;;;21.85;25.75
42297;BME280;72430;47.456;19.016;2024-01-25T11:22:44;100682.53;;;22.83;25.44
42297;BME280;72430;47.456;19.016;2024-01-25T11:25:47;100660.94;;;22.26;25.12
42297;BME280;72430;47.456;19.016;2024-01-25T11:28:49;100688.84;;;22.43;25.45
42297;BME280;72430;47.456;19.016;2024-01-25T11:31:52;100679.38;;;22.52;25.42
42297;BME280;72430;47.456;19.016;2024-01-25T11:34:59;100705.28;;;20.16;26.80
42297;BME280;72430;47.456;19.016;2024-01-25T11:38:01;100682.75;;;20.58;26.76
42297;BME280;72430;47.456;19.016;2024-01-25T11:41:03;100667.41;;;21.49;27.44
42297;BME280;72430;47.456;19.016;2024-01-25T11:44:05;100657.00;;;22.56;24.36
42297;BME280;72430;47.456;19.016;2024-01-25T11:47:07;100658.84;;;23.16;25.07
42297;BME280;72430;47.456;19.016;2024-01-25T11:50:12;100652.44;;;22.00;25.31
42297;BME280;72430;47.456;19.016;2024-01-25T11:53:15;100658.22;;;22.33;24.60
42297;BME280;72430;47.456;19.016;2024-01-25T11:56:25;100678.50;;;22.99;24.50
42297;BME280;72430;47.456;19.016;2024-01-25T11:59:28;100661.75;;;21.51;25.19
42297;BME280;72430;47.456;19.016;2024-01-25T12:02:30;100672.34;;;22.30;24.60
42297;BME280;72430;47.456;19.016;2024-01-25T12:05:33;100658.44;;;20.91;24.79
42297;BME280;72430;47.456;19.016;2024-01-25T12:08:35;100691.00;;;21.15;25.28
42297;BME280;72430;47.456;19.016;2024-01-25T12:11:40;100693.69;;;21.37;25.90
42297;BME280;72430;47.456;19.016;2024-01-25T12:14:42;100677.16;;;22.21;25.93
42297;BME280;72430;47.456;19.016;2024-01-25T12:17:44;100698.09;;;21.02;24.52
42297;BME280;72430;47.456;19.016;2024-01-25T12:20:46;100694.06;;;21.69;25.42
42297;BME280;72430;47.456;19.016;2024-01-25T12:23:48;100691.13;;;22.33;23.73
42297;BME280;72430;47.456;19.016;2024-01-25T12:26:50;100678.88;;;23.43;23.58
42297;BME280;72430;47.456;19.016;2024-01-25T12:29:53;100699.59;;;23.26;23.63
42297;BME280;72430;47.456;19.016;2024-01-25T12:32:55;100695.63;;;23.08;23.81
42297;BME280;72430;47.456;19.016;2024-01-25T12:35:57;100699.13;;;24.15;22.17
42297;BME280;72430;47.456;19.016;2024-01-25T12:39:00;100693.34;;;23.84;22.99
42297;BME280;72430;47.456;19.016;2024-01-25T12:42:03;100698.97;;;24.42;22.71
42297;BME280;72430;47.456;19.016;2024-01-25T12:45:05;100678.00;;;23.50;22.86
42297;BME280;72430;47.456;19.016;2024-01-25T12:48:08;100678.19;;;24.14;23.06
42297;BME280;72430;47.456;19.016;2024-01-25T12:51:11;100689.25;;;25.34;20.20
42297;BME280;72430;47.456;19.016;2024-01-25T12:54:12;100670.59;;;24.09;21.93
42297;BME280;72430;47.456;19.016;2024-01-25T12:57:14;100668.78;;;24.54;21.14
42297;BME280;72430;47.456;19.016;2024-01-25T13:00:17;100660.03;;;24.38;22.27
42297;BME280;72430;47.456;19.016;2024-01-25T13:03:19;100663.25;;;24.61;21.20
42297;BME280;72430;47.456;19.016;2024-01-25T13:06:21;100659.69;;;23.16;22.15
42297;BME280;72430;47.456;19.016;2024-01-25T13:09:23;100662.06;;;22.79;22.21
42297;BME280;72430;47.456;19.016;2024-01-25T13:12:25;100683.13;;;23.92;21.83
42297;BME280;72430;47.456;19.016;2024-01-25T13:15:28;100665.66;;;23.79;22.15
42297;BME280;72430;47.456;19.016;2024-01-25T13:18:30;100681.25;;;22.99;22.57
42297;BME280;72430;47.456;19.016;2024-01-25T13:21:33;100677.66;;;24.88;21.49
42297;BME280;72430;47.456;19.016;2024-01-25T13:24:35;100686.53;;;24.33;20.95
42297;BME280;72430;47.456;19.016;2024-01-25T13:27:36;100663.66;;;22.06;22.85
42297;BME280;72430;47.456;19.016;2024-01-25T13:30:38;100653.84;;;21.27;23.82
42297;BME280;72430;47.456;19.016;2024-01-25T13:33:40;100660.56;;;21.31;24.27
42297;BME280;72430;47.456;19.016;2024-01-25T13:36:46;100659.75;;;21.02;24.29
42297;BME280;72430;47.456;19.016;2024-01-25T13:39:48;100657.13;;;19.63;26.07
42297;BME280;72430;47.456;19.016;2024-01-25T13:42:50;100668.41;;;19.60;26.24
42297;BME280;72430;47.456;19.016;2024-01-25T13:45:52;100666.94;;;18.74;27.70
42297;BME280;72430;47.456;19.016;2024-01-25T13:48:54;100660.19;;;19.75;26.49
42297;BME280;72430;47.456;19.016;2024-01-25T13:51:56;100658.44;;;19.37;26.66
42297;BME280;72430;47.456;19.016;2024-01-25T13:54:58;100654.47;;;18.95;26.45
42297;BME280;72430;47.456;19.016;2024-01-25T13:58:00;100677.44;;;18.62;27.47
42297;BME280;72430;47.456;19.016;2024-01-25T14:01:03;100668.00;;;17.63;28.70
42297;BME280;72430;47.456;19.016;2024-01-25T14:04:06;100668.13;;;17.21;29.53
42297;BME280;72430;47.456;19.016;2024-01-25T14:07:09;100667.72;;;17.49;28.95
42297;BME280;72430;47.456;19.016;2024-01-25T14:10:11;100671.88;;;18.08;28.34
42297;BME280;72430;47.456;19.016;2024-01-25T14:13:13;100672.28;;;17.89;28.66
42297;BME280;72430;47.456;19.016;2024-01-25T14:16:15;100674.75;;;17.27;29.39
42297;BME280;72430;47.456;19.016;2024-01-25T14:19:18;100687.03;;;16.89;29.85
42297;BME280;72430;47.456;19.016;2024-01-25T14:22:22;100675.81;;;17.17;29.99
42297;BME280;72430;47.456;19.016;2024-01-25T14:25:32;100675.03;;;17.49;29.27
42297;BME280;72430;47.456;19.016;2024-01-25T14:28:34;100706.66;;;17.50;29.27
42297;BME280;72430;47.456;19.016;2024-01-25T14:31:36;100709.97;;;16.70;29.35
42297;BME280;72430;47.456;19.016;2024-01-25T14:34:38;100713.41;;;15.96;30.37
42297;BME280;72430;47.456;19.016;2024-01-25T14:37:42;100723.78;;;16.01;31.11
42297;BME280;72430;47.456;19.016;2024-01-25T14:40:43;100733.41;;;15.87;30.97
42297;BME280;72430;47.456;19.016;2024-01-25T14:44:00;100729.25;;;15.39;31.42
42297;BME280;72430;47.456;19.016;2024-01-25T14:47:02;100748.03;;;14.70;32.11
42297;BME280;72430;47.456;19.016;2024-01-25T14:50:05;100736.88;;;14.73;32.47
42297;BME280;72430;47.456;19.016;2024-01-25T14:53:07;100739.13;;;13.67;34.38
42297;BME280;72430;47.456;19.016;2024-01-25T14:56:09;100759.72;;;13.78;34.74
42297;BME280;72430;47.456;19.016;2024-01-25T14:59:11;100760.81;;;13.57;34.35
42297;BME280;72430;47.456;19.016;2024-01-25T15:02:13;100758.16;;;13.75;33.46
42297;BME280;72430;47.456;19.016;2024-01-25T15:05:17;100751.88;;;13.37;34.38
42297;BME280;72430;47.456;19.016;2024-01-25T15:08:19;100774.56;;;12.96;35.26
42297;BME280;72430;47.456;19.016;2024-01-25T15:11:21;100765.16;;;12.91;35.20
42297;BME280;72430;47.456;19.016;2024-01-25T15:14:24;100776.56;;;12.74;36.39
42297;BME280;72430;47.456;19.016;2024-01-25T15:17:26;100768.44;;;12.55;36.21
42297;BME280;72430;47.456;19.016;2024-01-25T15:20:28;100769.84;;;12.39;36.76
42297;BME280;72430;47.456;19.016;2024-01-25T15:23:30;100775.91;;;12.21;36.13
42297;BME280;72430;47.456;19.016;2024-01-25T15:26:32;100779.41;;;11.71;38.74
42297;BME280;72430;47.456;19.016;2024-01-25T15:29:39;100766.84;;;11.50;38.32
42297;BME280;72430;47.456;19.016;2024-01-25T15:32:40;100784.78;;;11.40;37.72
42297;BME280;72430;47.456;19.016;2024-01-25T15:35:44;100777.03;;;11.04;39.03
42297;BME280;72430;47.456;19.016;2024-01-25T15:38:46;100777.03;;;11.25;38.21
42297;BME280;72430;47.456;19.016;2024-01-25T15:41:49;100773.63;;;11.02;39.53
42297;BME280;72430;47.456;19.016;2024-01-25T15:44:52;100775.16;;;11.16;38.08
42297;BME280;72430;47.456;19.016;2024-01-25T15:47:53;100777.81;;;10.73;40.19